createdAt,value
2022-10-04T00:00:51.112Z,7.65
2022-10-04T00:03:26.151Z,7.38
2022-10-04T00:05:57.946Z,8.20
2022-10-04T00:08:31.585Z,9.07
2022-10-04T00:11:06.283Z,8.27
2022-10-04T00:13:36.011Z,9.82
2022-10-04T00:16:03.902Z,10.25
2022-10-04T00:18:38.703Z,10.27
2022-10-04T00:21:08.712Z,9.45
2022-10-04T00:23:47.600Z,8.55
2022-10-04T00:27:03.053Z,8.07
2022-10-04T00:29:33.291Z,7.28
2022-10-04T00:32:27.037Z,6.20
2022-10-04T00:34:56.284Z,7.07
2022-10-04T00:37:27.090Z,6.38
2022-10-04T00:40:02.176Z,5.15
2022-10-04T00:42:58.687Z,5.47
2022-10-04T00:45:34.160Z,5.13
2022-10-04T00:48:19.917Z,4.95
2022-10-04T00:50:54.007Z,5.55
2022-10-04T00:53:40.317Z,5.07
2022-10-04T00:56:12.362Z,4.30
2022-10-04T00:59:02.487Z,3.60
2022-10-04T01:01:35.196Z,2.85
2022-10-04T01:04:06.080Z,2.80
2022-10-04T01:06:36.487Z,3.22
2022-10-04T01:09:09.521Z,3.45
2022-10-04T01:11:42.524Z,2.78
2022-10-04T01:14:19.342Z,3.25
2022-10-04T01:16:47.696Z,3.20
2022-10-04T01:19:30.652Z,3.38
2022-10-04T01:22:10.127Z,3.78
2022-10-04T01:24:39.795Z,3.53
2022-10-04T01:27:32.394Z,3.40
2022-10-04T01:30:00.888Z,3.03
2022-10-04T01:32:28.527Z,3.38
2022-10-04T01:34:57.144Z,3.72
2022-10-04T01:37:24.882Z,3.70
2022-10-04T01:39:54.246Z,3.28
2022-10-04T01:42:27.099Z,2.90
2022-10-04T01:44:59.950Z,2.72
2022-10-04T01:47:33.848Z,3.10
2022-10-04T01:50:07.617Z,3.22
2022-10-04T01:52:41.366Z,3.30
2022-10-04T01:55:15.900Z,3.17
2022-10-04T01:57:49.299Z,2.83
2022-10-04T02:00:17.524Z,2.90
2022-10-04T02:02:52.242Z,2.92
2022-10-04T02:05:28.672Z,2.88
2022-10-04T02:08:01.995Z,2.97
2022-10-04T02:10:34.443Z,3.05
2022-10-04T02:13:05.672Z,3.28
2022-10-04T02:15:37.141Z,3.05
2022-10-04T02:18:10.675Z,2.90
2022-10-04T02:20:40.413Z,2.58
2022-10-04T02:23:10.482Z,2.65
2022-10-04T02:25:40.016Z,2.45
2022-10-04T02:28:11.113Z,3.45
2022-10-04T02:30:41.316Z,2.95
2022-10-04T02:33:10.965Z,3.08
2022-10-04T02:35:45.392Z,3.58
2022-10-04T02:38:19.242Z,3.80
2022-10-04T02:40:56.309Z,3.03
2022-10-04T02:43:29.007Z,4.18
2022-10-04T02:46:05.779Z,3.95
2022-10-04T02:48:40.764Z,3.50
2022-10-04T02:51:20.274Z,4.38
2022-10-04T02:54:02.955Z,4.72
2022-10-04T02:56:37.060Z,4.22
2022-10-04T02:59:06.413Z,4.03
2022-10-04T03:01:51.517Z,3.50
2022-10-04T03:04:22.033Z,3.53
2022-10-04T03:06:51.004Z,3.90
2022-10-04T03:09:20.941Z,3.40
2022-10-04T03:11:51.357Z,3.38
2022-10-04T03:14:21.925Z,3.78
2022-10-04T03:16:54.151Z,3.67
2022-10-04T03:19:24.062Z,3.70
2022-10-04T03:21:53.720Z,3.35
2022-10-04T03:24:28.425Z,3.30
2022-10-04T03:27:01.374Z,3.00
2022-10-04T03:29:32.578Z,2.58
2022-10-04T03:32:02.868Z,3.58
2022-10-04T03:34:35.029Z,3.55
2022-10-04T03:37:03.316Z,3.30
2022-10-04T03:39:33.298Z,3.53
2022-10-04T03:42:07.846Z,2.97
2022-10-04T03:44:36.251Z,3.58
2022-10-04T03:47:10.074Z,9.75
2022-10-04T03:49:39.123Z,10.45
2022-10-04T03:52:15.651Z,6.03
2022-10-04T03:54:43.924Z,4.45
2022-10-04T03:57:13.499Z,4.10
2022-10-04T03:59:41.552Z,3.85
2022-10-04T04:02:14.098Z,3.83
2022-10-04T04:04:47.824Z,3.72
2022-10-04T04:07:20.531Z,4.05
2022-10-04T04:09:53.001Z,3.70
2022-10-04T04:12:26.453Z,3.92
2022-10-04T04:14:55.030Z,3.80
2022-10-04T04:17:40.629Z,3.70
2022-10-04T04:20:25.284Z,4.07
2022-10-04T04:23:03.978Z,4.55
2022-10-04T04:25:33.967Z,4.45
2022-10-04T04:28:13.526Z,4.20
2022-10-04T04:30:47.080Z,4.93
2022-10-04T04:33:24.775Z,4.90
2022-10-04T04:35:56.200Z,5.25
2022-10-04T04:38:25.477Z,5.43
2022-10-04T04:40:53.825Z,4.72
2022-10-04T04:43:26.875Z,5.63
2022-10-04T04:46:22.114Z,5.13
2022-10-04T04:48:44.907Z,5.15
2022-10-04T04:51:19.309Z,5.38
2022-10-04T04:53:48.303Z,4.90
2022-10-04T04:56:18.972Z,5.57
2022-10-04T04:58:51.371Z,5.75
2022-10-04T05:01:24.161Z,5.07
2022-10-04T05:04:02.848Z,5.53
2022-10-04T05:06:32.469Z,4.72
2022-10-04T05:09:00.511Z,4.60
2022-10-04T05:11:31.406Z,4.65
2022-10-04T05:14:03.750Z,5.10
2022-10-04T05:16:40.667Z,4.57
2022-10-04T05:19:14.447Z,4.63
2022-10-04T05:21:45.330Z,4.90
2022-10-04T05:24:20.258Z,5.13
2022-10-04T05:26:50.854Z,4.82
2022-10-04T05:29:23.801Z,4.43
2022-10-04T05:32:01.125Z,4.57
2022-10-04T05:34:36.007Z,4.75
2022-10-04T05:37:25.131Z,6.00
2022-10-04T05:40:04.804Z,6.20
2022-10-04T05:42:39.800Z,6.25
2022-10-04T05:45:18.509Z,5.93
2022-10-04T05:47:50.259Z,4.72
2022-10-04T05:52:50.558Z,4.88
2022-10-04T05:55:28.956Z,4.18
2022-10-04T05:58:18.183Z,4.47
2022-10-04T06:01:06.652Z,4.25
2022-10-04T06:03:49.369Z,4.25
2022-10-04T06:06:22.823Z,4.68
2022-10-04T06:09:06.353Z,4.65
2022-10-04T06:11:46.881Z,4.55
2022-10-04T06:14:46.812Z,4.53
2022-10-04T06:17:28.254Z,4.60
2022-10-04T06:20:25.344Z,5.45
2022-10-04T06:22:58.830Z,5.18
2022-10-04T06:25:32.788Z,6.30
2022-10-04T06:28:13.746Z,5.32
2022-10-04T06:30:58.883Z,5.18
2022-10-04T06:33:42.936Z,4.70
2022-10-04T06:36:42.064Z,5.10
2022-10-04T06:39:28.363Z,4.60
2022-10-04T06:42:33.803Z,5.15
2022-10-04T06:45:27.875Z,5.13
2022-10-04T06:48:28.628Z,4.32
2022-10-04T06:51:09.091Z,5.57
2022-10-04T06:53:50.166Z,4.70
2022-10-04T06:56:33.443Z,4.43
2022-10-04T06:59:42.567Z,4.85
2022-10-04T07:02:14.819Z,4.47
2022-10-04T07:05:07.679Z,4.82
2022-10-04T07:07:40.590Z,3.95
2022-10-04T07:10:30.193Z,4.05
2022-10-04T07:13:30.690Z,4.38
2022-10-04T07:16:04.479Z,3.80
2022-10-04T07:18:44.430Z,5.05
2022-10-04T07:21:16.692Z,4.63
2022-10-04T07:23:51.815Z,3.75
2022-10-04T07:26:28.843Z,3.58
2022-10-04T07:29:00.374Z,4.60
2022-10-04T07:31:30.988Z,4.10
2022-10-04T07:34:01.962Z,4.68
2022-10-04T07:36:40.236Z,4.72
2022-10-04T07:39:14.731Z,4.30
2022-10-04T07:41:49.556Z,3.92
2022-10-04T07:44:26.285Z,4.38
2022-10-04T07:46:57.961Z,4.90
2022-10-04T07:49:27.612Z,4.80
2022-10-04T07:52:26.604Z,4.60
2022-10-04T07:55:06.331Z,4.30
2022-10-04T07:57:46.353Z,6.15
2022-10-04T08:00:18.072Z,4.88
2022-10-04T08:03:03.984Z,4.10
2022-10-04T08:05:37.599Z,4.22
2022-10-04T08:08:22.204Z,4.80
2022-10-04T08:11:12.807Z,4.43
2022-10-04T08:13:52.183Z,4.22
2022-10-04T08:16:34.512Z,3.95
2022-10-04T08:19:18.792Z,4.70
2022-10-04T08:21:55.543Z,3.70
2022-10-04T08:24:31.250Z,3.90
2022-10-04T08:27:18.601Z,4.30
2022-10-04T08:30:03.624Z,4.13
2022-10-04T08:32:49.639Z,3.40
2022-10-04T08:35:35.202Z,3.70
2022-10-04T08:38:33.775Z,3.28
2022-10-04T08:41:35.604Z,3.10
2022-10-04T08:47:23.275Z,3.35
2022-10-04T08:50:35.717Z,3.60
2022-10-04T08:53:46.745Z,4.03
2022-10-04T08:56:24.834Z,3.35
2022-10-04T08:59:37.237Z,3.53
2022-10-04T09:02:32.453Z,3.08
2022-10-04T09:05:18.165Z,3.15
2022-10-04T09:08:13.151Z,3.55
2022-10-04T09:11:02.090Z,4.45
2022-10-04T09:13:40.331Z,3.88
2022-10-04T09:16:18.859Z,3.88
2022-10-04T09:19:13.348Z,4.15
2022-10-04T09:22:01.159Z,4.13
2022-10-04T09:25:05.785Z,4.13
2022-10-04T09:27:55.025Z,4.13
2022-10-04T09:30:39.990Z,3.97
2022-10-04T09:33:52.039Z,4.07
2022-10-04T09:36:42.887Z,3.20
2022-10-04T09:39:43.901Z,3.25
2022-10-04T09:42:38.956Z,3.15
2022-10-04T09:45:31.200Z,3.00
2022-10-04T09:48:20.023Z,2.95
2022-10-04T09:51:19.625Z,2.92
2022-10-04T09:54:03.488Z,2.47
2022-10-04T09:56:58.100Z,2.67
2022-10-04T10:00:08.524Z,3.70
2022-10-04T10:03:02.602Z,2.65
2022-10-04T10:05:48.888Z,2.63
2022-10-04T10:08:28.106Z,2.35
2022-10-04T10:11:04.899Z,2.92
2022-10-04T10:14:00.821Z,3.45
2022-10-04T10:16:42.591Z,3.90
2022-10-04T10:19:38.609Z,3.60
2022-10-04T10:22:28.328Z,3.35
2022-10-04T10:25:18.395Z,3.17
2022-10-04T10:28:22.015Z,3.67
2022-10-04T10:31:08.554Z,3.33
2022-10-04T10:34:00.672Z,3.60
2022-10-04T10:36:43.354Z,3.38
2022-10-04T10:39:44.826Z,3.88
2022-10-04T10:42:37.147Z,3.65
2022-10-04T10:45:19.429Z,4.10
2022-10-04T10:47:54.404Z,4.15
2022-10-04T10:50:43.650Z,3.22
2022-10-04T10:53:25.513Z,2.95
2022-10-04T10:56:34.098Z,3.55
2022-10-04T10:59:33.244Z,3.38
2022-10-04T11:02:47.548Z,3.70
2022-10-04T11:05:58.682Z,3.65
2022-10-04T11:08:50.285Z,3.42
2022-10-04T11:11:44.458Z,2.90
2022-10-04T11:14:47.657Z,3.17
2022-10-04T11:17:32.650Z,3.50
2022-10-04T11:20:41.045Z,3.58
2022-10-04T11:24:11.449Z,3.65
2022-10-04T11:26:56.816Z,3.50
2022-10-04T11:29:47.778Z,3.53
2022-10-04T11:32:44.158Z,3.78
2022-10-04T11:35:55.927Z,3.35
2022-10-04T11:41:17.747Z,3.33
2022-10-04T11:44:22.860Z,3.10
2022-10-04T11:46:57.035Z,3.47
2022-10-04T11:49:49.289Z,3.40
2022-10-04T11:52:55.590Z,3.33
2022-10-04T11:55:58.124Z,3.28
2022-10-04T11:58:35.728Z,3.30
2022-10-04T12:01:39.785Z,3.20
2022-10-04T12:04:52.437Z,4.63
2022-10-04T12:07:33.703Z,2.90
2022-10-04T12:10:19.730Z,2.97
2022-10-04T12:13:13.928Z,2.60
2022-10-04T12:16:15.890Z,2.90
2022-10-04T12:19:03.801Z,3.13
2022-10-04T12:21:41.679Z,3.17
2022-10-04T12:24:21.135Z,3.08
2022-10-04T12:27:16.012Z,3.13
2022-10-04T12:30:21.000Z,3.22
2022-10-04T12:33:10.788Z,2.63
2022-10-04T12:36:01.665Z,2.75
2022-10-04T12:38:46.223Z,2.40
2022-10-04T12:41:27.468Z,3.55
2022-10-04T12:44:05.960Z,2.70
2022-10-04T12:46:43.554Z,2.85
2022-10-04T12:49:21.839Z,2.67
2022-10-04T12:51:58.307Z,2.88
2022-10-04T12:54:42.790Z,2.70
2022-10-04T12:57:33.403Z,3.30
2022-10-04T13:00:13.301Z,2.83
2022-10-04T13:03:02.152Z,2.58
2022-10-04T13:05:36.340Z,3.42
2022-10-04T13:08:34.827Z,2.97
2022-10-04T13:11:37.187Z,2.47
2022-10-04T13:14:33.347Z,2.80
2022-10-04T13:17:29.613Z,2.97
2022-10-04T13:20:25.280Z,2.70
2022-10-04T13:23:03.952Z,2.47
2022-10-04T13:26:05.035Z,2.17
2022-10-04T13:28:43.800Z,3.25
2022-10-04T13:31:22.171Z,2.60
2022-10-04T13:33:59.914Z,2.08
2022-10-04T13:36:47.452Z,2.15
2022-10-04T13:39:36.681Z,2.00
2022-10-04T13:42:26.893Z,2.40
2022-10-04T13:45:24.657Z,2.90
2022-10-04T13:48:13.799Z,2.92
2022-10-04T13:50:58.230Z,2.20
2022-10-04T13:53:41.392Z,3.10
2022-10-04T13:56:30.629Z,2.33
2022-10-04T13:59:07.136Z,2.30
2022-10-04T14:01:52.373Z,2.60
2022-10-04T14:04:40.368Z,2.30
2022-10-04T14:07:34.631Z,2.80
2022-10-04T14:10:20.269Z,1.92
2022-10-04T14:13:21.274Z,1.77
2022-10-04T14:16:24.506Z,2.00
2022-10-04T14:19:22.382Z,1.67
2022-10-04T14:22:28.513Z,1.65
2022-10-04T14:25:29.344Z,2.00
2022-10-04T14:28:37.597Z,2.03
2022-10-04T14:31:37.045Z,2.08
2022-10-04T14:34:33.767Z,1.67
2022-10-04T14:37:24.536Z,2.20
2022-10-04T14:40:15.111Z,2.13
2022-10-04T14:43:13.541Z,2.15
2022-10-04T14:45:58.433Z,2.20
2022-10-04T14:48:44.117Z,2.10
2022-10-04T14:51:44.614Z,2.03
2022-10-04T14:54:25.557Z,2.83
2022-10-04T14:57:04.091Z,2.72
2022-10-04T14:59:53.883Z,2.42
2022-10-04T15:02:43.718Z,3.40
2022-10-04T15:05:35.029Z,3.35
2022-10-04T15:08:43.401Z,2.00
2022-10-04T15:11:14.781Z,3.10
2022-10-04T15:13:52.053Z,2.53
2022-10-04T15:16:31.449Z,2.58
2022-10-04T15:19:04.429Z,2.30
2022-10-04T15:21:53.423Z,2.33
2022-10-04T15:24:27.752Z,2.83
2022-10-04T15:27:19.240Z,2.60
2022-10-04T15:29:55.224Z,2.78
2022-10-04T15:32:35.764Z,2.58
2022-10-04T15:35:22.493Z,3.88
2022-10-04T15:37:58.366Z,3.10
2022-10-04T15:41:00.558Z,3.20
2022-10-04T15:43:34.489Z,3.47
2022-10-04T15:46:28.276Z,3.72
2022-10-04T15:49:15.961Z,3.97
2022-10-04T15:52:01.237Z,3.63
2022-10-04T15:55:12.246Z,4.50
2022-10-04T15:58:08.285Z,5.65
2022-10-04T16:00:48.746Z,10.27
2022-10-04T16:03:30.827Z,10.52
2022-10-04T16:06:04.497Z,10.10
2022-10-04T16:09:10.435Z,10.45
2022-10-04T16:11:57.987Z,9.20
2022-10-04T16:15:10.445Z,7.30
2022-10-04T16:17:45.959Z,6.90
2022-10-04T16:20:39.868Z,5.63
2022-10-04T16:23:30.227Z,4.93
2022-10-04T16:25:59.221Z,4.30
2022-10-04T16:29:01.068Z,5.05
2022-10-04T16:31:49.694Z,4.57
2022-10-04T16:34:44.983Z,4.00
2022-10-04T16:37:29.608Z,5.22
2022-10-04T16:40:01.574Z,5.60
2022-10-04T16:42:39.072Z,6.03
2022-10-04T16:45:45.483Z,7.63
2022-10-04T16:48:37.415Z,8.23
2022-10-04T16:53:53.367Z,5.88
2022-10-04T16:58:55.637Z,6.28
2022-10-04T17:01:57.380Z,7.03
2022-10-04T17:04:52.275Z,8.68
2022-10-04T17:07:28.364Z,8.45
2022-10-04T17:10:02.600Z,8.00
2022-10-04T17:12:42.780Z,7.70
2022-10-04T17:15:42.423Z,6.88
2022-10-04T17:18:29.983Z,10.00
2022-10-04T17:21:03.143Z,8.52
2022-10-04T17:23:59.261Z,8.30
2022-10-04T17:26:38.388Z,7.55
2022-10-04T17:29:31.839Z,8.20
2022-10-04T17:32:07.456Z,7.85
2022-10-04T17:34:51.687Z,9.55
2022-10-04T17:37:34.375Z,8.15
2022-10-04T17:40:27.179Z,8.00
2022-10-04T17:43:00.667Z,8.57
2022-10-04T17:45:50.918Z,8.88
2022-10-04T17:48:23.316Z,10.70
2022-10-04T17:51:00.130Z,8.77
2022-10-04T17:53:31.777Z,9.10
2022-10-04T17:58:40.929Z,9.43
2022-10-04T18:01:13.346Z,8.30
2022-10-04T18:03:45.310Z,7.78
2022-10-04T18:06:25.964Z,9.25
2022-10-04T18:08:59.242Z,7.40
2022-10-04T18:11:35.142Z,8.00
2022-10-04T18:14:06.710Z,6.43
2022-10-04T18:16:49.247Z,7.75
2022-10-04T18:19:40.830Z,7.72
2022-10-04T18:22:14.117Z,6.65
2022-10-04T18:24:45.363Z,8.65
2022-10-04T18:27:20.635Z,8.98
2022-10-04T18:29:58.474Z,8.95
2022-10-04T18:32:34.425Z,8.05
2022-10-04T18:35:18.713Z,8.25
2022-10-04T18:37:46.347Z,7.95
2022-10-04T18:40:18.793Z,8.73
2022-10-04T18:42:51.501Z,8.95
2022-10-04T18:45:22.270Z,9.07
2022-10-04T18:47:50.601Z,10.10
2022-10-04T18:50:35.086Z,13.40
2022-10-04T18:53:37.051Z,17.45
2022-10-04T18:56:08.379Z,25.83
2022-10-04T18:58:58.652Z,44.75
2022-10-04T19:01:40.402Z,61.70
2022-10-04T19:04:14.632Z,52.90
2022-10-04T19:06:47.303Z,74.05
2022-10-04T19:09:26.866Z,79.65
2022-10-04T19:12:00.329Z,81.15
2022-10-04T19:14:36.498Z,74.85
2022-10-04T19:17:12.522Z,76.60
2022-10-04T19:19:46.426Z,78.18
2022-10-04T19:22:24.685Z,70.55
2022-10-04T19:25:31.303Z,51.92
2022-10-04T19:28:07.510Z,42.03
2022-10-04T19:31:06.431Z,36.58
2022-10-04T19:33:42.089Z,29.23
2022-10-04T19:36:24.964Z,23.35
2022-10-04T19:39:12.342Z,19.13
2022-10-04T19:41:51.920Z,17.58
2022-10-04T19:44:52.584Z,15.35
2022-10-04T19:47:36.296Z,13.48
2022-10-04T19:50:14.411Z,16.35
2022-10-04T19:52:51.637Z,11.65
2022-10-04T19:55:29.548Z,11.73
2022-10-04T19:58:06.689Z,12.93
2022-10-04T20:00:36.250Z,12.98
2022-10-04T20:03:10.655Z,12.35
2022-10-04T20:05:44.081Z,11.10
2022-10-04T20:08:13.099Z,12.48
2022-10-04T20:10:41.920Z,12.30
2022-10-04T20:13:18.644Z,11.57
2022-10-04T20:15:49.660Z,11.55
2022-10-04T20:21:08.204Z,11.57
2022-10-04T20:23:50.642Z,11.80
2022-10-04T20:26:39.881Z,12.05
2022-10-04T20:29:07.842Z,14.75
2022-10-04T20:31:55.622Z,15.98
2022-10-04T20:34:31.978Z,21.27
2022-10-04T20:37:00.222Z,17.50
2022-10-04T20:39:58.197Z,19.10
2022-10-04T20:42:39.057Z,18.33
2022-10-04T20:45:22.438Z,16.63
2022-10-04T20:47:53.690Z,13.00
2022-10-04T20:50:30.223Z,9.68
2022-10-04T20:53:01.119Z,10.20
2022-10-04T20:55:31.551Z,9.25
2022-10-04T20:58:02.355Z,10.65
2022-10-04T21:00:33.430Z,10.32
2022-10-04T21:03:15.532Z,10.45
2022-10-04T21:05:43.886Z,10.45
2022-10-04T21:08:21.988Z,11.10
2022-10-04T21:11:08.969Z,10.50
2022-10-04T21:13:57.629Z,8.45
2022-10-04T21:16:47.334Z,7.70
2022-10-04T21:19:49.397Z,7.75
2022-10-04T21:22:39.075Z,7.65
2022-10-04T21:25:38.860Z,7.00
2022-10-04T21:28:34.599Z,7.43
2022-10-04T21:31:03.530Z,7.80
2022-10-04T21:33:33.048Z,8.60
2022-10-04T21:36:02.402Z,8.38
2022-10-04T21:38:30.264Z,10.27
2022-10-04T21:40:57.826Z,11.15
2022-10-04T21:43:27.173Z,10.65
2022-10-04T21:45:55.044Z,11.40
2022-10-04T21:48:22.854Z,9.65
2022-10-04T21:50:52.623Z,10.55
2022-10-04T21:53:22.313Z,10.10
2022-10-04T21:55:50.290Z,10.45
2022-10-04T21:58:17.904Z,9.40
2022-10-04T22:00:45.726Z,8.85
2022-10-04T22:03:14.664Z,8.75
2022-10-04T22:05:42.876Z,8.43
2022-10-04T22:08:10.436Z,8.30
2022-10-04T22:10:39.440Z,7.45
2022-10-04T22:13:07.240Z,6.55
2022-10-04T22:15:35.814Z,7.07
2022-10-04T22:18:03.809Z,6.63
2022-10-04T22:20:31.778Z,6.68
2022-10-04T22:23:01.068Z,7.35
2022-10-04T22:25:28.764Z,7.10
2022-10-04T22:28:00.395Z,6.90
2022-10-04T22:30:29.646Z,6.45
2022-10-04T22:33:00.826Z,6.95
2022-10-04T22:35:30.707Z,7.20
2022-10-04T22:37:59.975Z,7.18
2022-10-04T22:40:28.965Z,8.70
2022-10-04T22:42:58.717Z,8.68
2022-10-04T22:45:29.507Z,8.50
2022-10-04T22:48:01.192Z,7.43
2022-10-04T22:50:31.927Z,7.40
2022-10-04T22:53:05.331Z,7.60
2022-10-04T22:55:33.005Z,8.32
2022-10-04T22:58:03.642Z,8.07
2022-10-04T23:00:31.774Z,8.82
2022-10-04T23:02:59.662Z,9.02
2022-10-04T23:05:28.087Z,8.48
2022-10-04T23:07:57.691Z,8.45
2022-10-04T23:10:25.733Z,8.85
2022-10-04T23:12:53.981Z,7.88
2022-10-04T23:15:23.129Z,9.55
2022-10-04T23:17:54.471Z,9.05
2022-10-04T23:20:22.790Z,9.27
2022-10-04T23:22:52.898Z,7.95
2022-10-04T23:25:26.682Z,7.75
2022-10-04T23:27:56.689Z,10.60
2022-10-04T23:30:25.749Z,9.20
2022-10-04T23:32:58.058Z,9.45
2022-10-04T23:35:30.303Z,9.43
2022-10-04T23:37:58.403Z,8.90
2022-10-04T23:40:26.286Z,8.85
2022-10-04T23:42:56.915Z,8.77
2022-10-04T23:45:26.932Z,8.73
2022-10-04T23:47:57.110Z,8.90
2022-10-04T23:50:27.454Z,9.80
2022-10-04T23:52:57.457Z,10.45
2022-10-04T23:55:29.799Z,9.50
2022-10-04T23:57:59.684Z,9.48
